createdAt,value
2019-01-03T00:03:26.569Z,75.21
2019-01-03T00:06:14.177Z,75.49
2019-01-03T00:09:01.775Z,75.63
2019-01-03T00:11:49.391Z,75.90
2019-01-03T00:17:26.078Z,76.45
2019-01-03T00:20:13.667Z,77.16
2019-01-03T00:25:55.981Z,77.28
2019-01-03T00:45:37.834Z,76.42
2019-01-03T00:51:23.842Z,75.07
2019-01-03T00:54:11.429Z,74.57
2019-01-03T00:56:59.027Z,74.04
2019-01-03T00:59:46.616Z,73.95
2019-01-03T01:05:12.932Z,73.33
2019-01-03T01:08:00.536Z,73.21
2019-01-03T01:10:48.130Z,73.07
2019-01-03T01:13:35.733Z,72.88
2019-01-03T01:16:23.332Z,72.87
2019-01-03T01:19:10.932Z,72.72
2019-01-03T01:21:58.541Z,72.55
2019-01-03T01:24:46.373Z,72.49
2019-01-03T01:27:53.230Z,72.47
2019-01-03T01:30:40.816Z,72.54
2019-01-03T01:33:28.423Z,72.65
2019-01-03T01:36:16.016Z,72.72
2019-01-03T01:39:03.616Z,72.83
2019-01-03T01:44:59.549Z,73.31
2019-01-03T01:48:06.502Z,73.48
2019-01-03T01:51:13.343Z,73.71
2019-01-03T01:54:00.943Z,73.61
2019-01-03T01:56:48.536Z,73.51
2019-01-03T01:59:55.394Z,73.21
2019-01-03T02:02:42.999Z,73.11
2019-01-03T02:08:19.680Z,73.15
2019-01-03T02:11:07.275Z,73.14
2019-01-03T02:13:54.883Z,73.32
2019-01-03T02:16:42.478Z,72.76
2019-01-03T02:22:28.360Z,72.44
2019-01-03T02:25:35.304Z,72.44
2019-01-03T02:28:22.906Z,72.80
2019-01-03T02:31:10.502Z,72.93
2019-01-03T02:33:58.107Z,73.13
2019-01-03T02:37:05.049Z,73.15
2019-01-03T02:39:52.655Z,73.28
2019-01-03T02:42:40.255Z,73.23
2019-01-03T02:45:27.861Z,72.92
2019-01-03T02:51:04.539Z,73.71
2019-01-03T02:53:52.144Z,73.71
2019-01-03T02:56:39.733Z,74.15
2019-01-03T02:59:27.341Z,74.70
2019-01-03T03:05:04.019Z,75.29
2019-01-03T03:13:38.804Z,75.59
2019-01-03T03:19:05.308Z,76.28
2019-01-03T03:22:12.252Z,76.38
2019-01-03T03:24:59.849Z,76.51
2019-01-03T03:27:47.444Z,76.32
2019-01-03T03:30:54.305Z,75.90
2019-01-03T03:33:41.902Z,75.74
2019-01-03T03:36:29.508Z,76.02
2019-01-03T03:39:17.103Z,75.99
2019-01-03T03:47:51.986Z,76.60
2019-01-03T03:53:15.136Z,76.45
2019-01-03T04:04:31.282Z,76.23
2019-01-03T04:07:18.874Z,76.26
2019-01-03T04:12:41.760Z,76.11
2019-01-03T04:15:29.374Z,75.99
2019-01-03T04:21:06.053Z,75.89
2019-01-03T04:23:53.640Z,75.55
2019-01-03T04:26:41.244Z,75.60
2019-01-03T04:29:28.839Z,75.92
2019-01-03T04:32:16.444Z,75.57
2019-01-03T04:35:04.043Z,76.36
2019-01-03T04:38:10.989Z,77.36
2019-01-03T04:41:17.846Z,76.97
2019-01-03T04:44:24.790Z,76.96
2019-01-03T04:47:12.389Z,76.75
2019-01-03T04:49:59.986Z,77.18
2019-01-03T04:52:47.599Z,77.71
2019-01-03T04:55:54.542Z,76.95
2019-01-03T04:58:42.137Z,76.57
2019-01-03T05:02:08.345Z,76.23
2019-01-03T05:04:55.948Z,76.38
2019-01-03T05:07:43.547Z,76.76
2019-01-03T05:10:31.154Z,76.50
2019-01-03T05:13:18.747Z,76.28
2019-01-03T05:16:25.609Z,76.13
2019-01-03T05:19:13.205Z,76.10
2019-01-03T05:24:39.697Z,75.91
2019-01-03T05:30:05.957Z,75.46
2019-01-03T05:33:12.906Z,75.55
2019-01-03T05:36:00.498Z,75.55
2019-01-03T05:39:07.359Z,75.05
2019-01-03T05:44:30.313Z,75.03
2019-01-03T05:47:17.920Z,75.06
2019-01-03T05:53:13.854Z,75.33
2019-01-03T05:56:01.446Z,75.02
2019-01-03T05:58:49.057Z,74.91
2019-01-03T06:01:36.656Z,74.84
2019-01-03T06:06:59.721Z,74.79
2019-01-03T06:10:06.891Z,74.79
2019-01-03T06:12:54.496Z,74.95
2019-01-03T06:16:01.349Z,75.03
2019-01-03T06:18:48.961Z,75.16
2019-01-03T06:24:25.639Z,75.13
2019-01-03T06:27:13.236Z,75.17
2019-01-03T06:30:00.844Z,75.13
2019-01-03T06:32:48.453Z,75.76
2019-01-03T06:43:39.309Z,76.92
2019-01-03T06:46:26.889Z,76.74
2019-01-03T06:49:26.738Z,76.50
2019-01-03T06:55:03.445Z,76.09
2019-01-03T06:57:51.042Z,76.06
2019-01-03T07:00:38.644Z,75.91
2019-01-03T07:03:26.248Z,75.77
2019-01-03T07:06:13.844Z,75.69
2019-01-03T07:09:13.647Z,75.89
2019-01-03T07:11:50.776Z,75.65
2019-01-03T07:14:38.381Z,75.49
2019-01-03T07:17:25.980Z,75.59
2019-01-03T07:20:13.583Z,75.42
2019-01-03T07:23:01.182Z,75.66
2019-01-03T07:26:08.128Z,75.95
2019-01-03T07:29:14.992Z,75.90
2019-01-03T07:32:02.588Z,76.17
2019-01-03T07:34:50.195Z,76.22
2019-01-03T07:40:47.675Z,77.18
2019-01-03T07:43:35.266Z,77.13
2019-01-03T07:46:42.128Z,77.25
2019-01-03T07:49:29.743Z,77.11
2019-01-03T07:55:06.430Z,77.66
2019-01-03T07:57:54.023Z,77.51
2019-01-03T08:06:15.589Z,81.50
2019-01-03T08:09:03.288Z,81.07
2019-01-03T08:11:50.969Z,81.12
2019-01-03T08:17:27.712Z,82.77
2019-01-03T08:20:15.315Z,86.89
2019-01-03T08:23:22.220Z,83.53
2019-01-03T08:31:20.640Z,63.53
2019-01-03T08:36:57.317Z,55.44
2019-01-03T08:42:34.004Z,55.21
2019-01-03T08:45:21.598Z,52.06
2019-01-03T08:48:09.202Z,52.60
2019-01-03T08:50:56.805Z,54.21
2019-01-03T08:56:33.483Z,55.49
2019-01-03T08:59:21.076Z,54.25
2019-01-03T09:02:27.936Z,51.74
2019-01-03T09:05:15.526Z,48.83
2019-01-03T09:08:03.128Z,49.78
2019-01-03T09:11:10.075Z,49.14
2019-01-03T09:13:57.675Z,48.28
2019-01-03T09:16:45.275Z,47.96
2019-01-03T09:19:52.127Z,46.25
2019-01-03T09:22:39.738Z,45.29
2019-01-03T09:28:16.419Z,43.56
2019-01-03T09:31:04.018Z,42.24
2019-01-03T09:33:51.633Z,41.71
2019-01-03T09:44:48.171Z,40.64
2019-01-03T09:49:50.724Z,40.39
2019-01-03T09:52:19.215Z,40.94
2019-01-03T09:55:06.943Z,41.66
2019-01-03T09:57:35.464Z,42.46
2019-01-03T10:00:44.877Z,42.50
2019-01-03T10:03:13.370Z,42.12
2019-01-03T10:06:01.097Z,41.40
2019-01-03T10:08:29.586Z,40.47
2019-01-03T10:11:17.314Z,40.49
2019-01-03T10:14:04.921Z,40.20
2019-01-03T10:16:33.389Z,39.57
2019-01-03T10:19:21.118Z,39.22
2019-01-03T10:21:49.598Z,41.07
2019-01-03T10:24:18.087Z,41.54
2019-01-03T10:27:05.691Z,44.08
2019-01-03T10:32:27.423Z,48.21
2019-01-03T10:34:55.906Z,47.52
2019-01-03T10:37:24.400Z,46.95
2019-01-03T10:40:12.007Z,47.24
2019-01-03T10:42:40.494Z,47.85
2019-01-03T10:45:48.906Z,48.34
2019-01-03T10:48:17.399Z,47.25
2019-01-03T10:53:33.330Z,45.88
2019-01-03T10:56:21.056Z,47.16
2019-01-03T10:58:49.541Z,48.66
2019-01-03T11:01:37.266Z,49.50
2019-01-03T11:06:58.748Z,51.06
2019-01-03T11:09:46.490Z,50.68
2019-01-03T11:12:34.092Z,50.47
2019-01-03T11:15:02.588Z,50.46
2019-01-03T11:17:31.061Z,51.41
2019-01-03T11:20:18.792Z,52.06
2019-01-03T11:22:47.286Z,51.93
2019-01-03T11:25:15.760Z,52.28
2019-01-03T11:27:44.243Z,52.62
2019-01-03T11:30:31.848Z,52.88
2019-01-03T11:33:00.343Z,53.44
2019-01-03T11:35:48.067Z,55.13
2019-01-03T11:38:16.543Z,57.49
2019-01-03T11:40:45.019Z,58.57
2019-01-03T11:43:32.745Z,59.75
2019-01-03T11:46:01.217Z,60.69
2019-01-03T11:48:29.706Z,62.63
2019-01-03T11:50:58.178Z,63.42
2019-01-03T11:53:45.778Z,64.16
2019-01-03T11:56:14.258Z,64.49
2019-01-03T11:59:13.728Z,65.29
2019-01-03T12:01:51.316Z,66.55
2019-01-03T12:06:54.378Z,68.02
2019-01-03T12:09:41.979Z,67.93
2019-01-03T12:12:29.576Z,67.92
2019-01-03T12:15:17.404Z,68.21
2019-01-03T12:20:33.322Z,66.80
2019-01-03T12:23:01.792Z,68.74
2019-01-03T12:25:30.273Z,69.90
2019-01-03T12:27:58.750Z,69.98
2019-01-03T12:30:46.346Z,69.90
2019-01-03T12:33:33.941Z,69.59
2019-01-03T12:36:02.421Z,68.82
2019-01-03T12:41:18.344Z,68.79
2019-01-03T12:43:46.818Z,69.86
2019-01-03T12:46:15.308Z,69.64
2019-01-03T12:49:03.028Z,69.29
2019-01-03T12:51:50.758Z,69.72
2019-01-03T12:54:19.229Z,69.55
2019-01-03T12:57:06.956Z,70.30
2019-01-03T12:59:35.430Z,71.34
2019-01-03T13:02:23.156Z,71.60
2019-01-03T13:04:51.667Z,73.31
2019-01-03T13:07:20.139Z,73.12
2019-01-03T13:09:48.608Z,73.34
2019-01-03T13:12:36.211Z,73.17
2019-01-03T13:15:44.613Z,72.85
2019-01-03T13:18:13.090Z,72.14
2019-01-03T13:21:00.928Z,71.41
2019-01-03T13:23:48.647Z,72.02
2019-01-03T13:26:36.244Z,72.21
2019-01-03T13:29:23.833Z,71.80
2019-01-03T13:31:52.319Z,71.34
2019-01-03T13:34:20.786Z,71.33
2019-01-03T13:37:08.386Z,71.12
2019-01-03T13:39:36.861Z,70.94
2019-01-03T13:42:24.593Z,70.60
2019-01-03T13:44:53.065Z,70.25
2019-01-03T13:47:21.554Z,70.18
2019-01-03T13:50:09.275Z,69.55
2019-01-03T13:55:11.425Z,69.25
2019-01-03T13:57:59.257Z,69.09
2019-01-03T14:00:27.739Z,68.56
2019-01-03T14:02:56.221Z,68.15
2019-01-03T14:05:44.033Z,68.18
2019-01-03T14:08:31.632Z,68.44
2019-01-03T14:11:18.461Z,69.15
2019-01-03T14:13:46.940Z,68.58
2019-01-03T14:16:15.418Z,68.17
2019-01-03T14:19:03.244Z,67.90
2019-01-03T14:26:39.459Z,67.08
2019-01-03T14:29:27.254Z,67.93
2019-01-03T14:31:55.739Z,69.07
2019-01-03T14:35:04.126Z,69.35
2019-01-03T14:37:51.724Z,69.18
2019-01-03T14:40:20.201Z,69.03
2019-01-03T14:43:07.932Z,69.38
2019-01-03T14:45:36.400Z,69.51
2019-01-03T14:48:04.885Z,70.14
2019-01-03T14:50:52.600Z,70.29
2019-01-03T14:53:40.200Z,70.15
2019-01-03T14:56:28.012Z,70.00
2019-01-03T14:59:15.662Z,70.12
2019-01-03T15:02:03.254Z,70.04
2019-01-03T15:07:25.364Z,70.33
2019-01-03T15:09:53.838Z,70.17
2019-01-03T15:12:22.320Z,70.37
2019-01-03T15:14:50.800Z,70.26
2019-01-03T15:17:38.525Z,70.06
2019-01-03T15:20:46.914Z,69.96
2019-01-03T15:23:34.739Z,70.79
2019-01-03T15:26:03.223Z,71.69
2019-01-03T15:28:31.708Z,72.20
2019-01-03T15:31:00.176Z,72.43
2019-01-03T15:33:47.905Z,73.35
2019-01-03T15:36:16.381Z,73.52
2019-01-03T15:39:03.989Z,74.00
2019-01-03T15:41:51.577Z,73.91
2019-01-03T15:44:20.067Z,73.48
2019-01-03T15:46:48.547Z,73.25
2019-01-03T15:49:36.140Z,73.01
2019-01-03T15:52:04.620Z,72.66
2019-01-03T15:54:52.340Z,72.28
2019-01-03T15:57:20.817Z,72.72
2019-01-03T16:00:08.597Z,73.11
2019-01-03T16:05:24.473Z,73.55
2019-01-03T16:08:12.286Z,73.59
2019-01-03T16:10:59.881Z,74.35
2019-01-03T16:16:35.055Z,75.06
2019-01-03T16:19:22.789Z,74.94
2019-01-03T16:21:51.261Z,74.91
2019-01-03T16:24:19.824Z,75.13
2019-01-03T16:27:07.543Z,74.85
2019-01-03T16:29:55.144Z,75.10
2019-01-03T16:32:23.624Z,75.67
2019-01-03T16:34:52.110Z,75.38
2019-01-03T16:40:27.364Z,76.65
2019-01-03T16:42:55.842Z,77.83
2019-01-03T16:45:24.330Z,77.24
2019-01-03T16:47:52.810Z,77.51
2019-01-03T16:50:40.545Z,77.13
2019-01-03T16:53:09.013Z,76.67
2019-01-03T16:55:37.506Z,77.00
2019-01-03T16:58:25.098Z,76.73
2019-01-03T17:01:12.831Z,76.61
2019-01-03T17:04:00.549Z,76.75
2019-01-03T17:06:48.371Z,76.27
2019-01-03T17:12:10.575Z,75.78
2019-01-03T17:14:58.405Z,75.62
2019-01-03T17:17:46.131Z,75.76
2019-01-03T17:20:33.967Z,75.69
2019-01-03T17:23:02.436Z,76.19
2019-01-03T17:25:30.913Z,75.63
2019-01-03T17:28:18.506Z,75.26
2019-01-03T17:31:06.340Z,74.99
2019-01-03T17:33:34.814Z,74.99
2019-01-03T17:36:22.541Z,75.60
2019-01-03T17:44:12.916Z,76.43
2019-01-03T17:46:41.640Z,76.68
2019-01-03T17:49:29.231Z,77.57
2019-01-03T17:51:57.716Z,78.42
2019-01-03T17:57:13.637Z,78.08
2019-01-03T18:00:01.468Z,78.60
2019-01-03T18:02:29.955Z,78.42
2019-01-03T18:05:17.776Z,78.83
2019-01-03T18:08:05.374Z,79.19
2019-01-03T18:10:33.856Z,80.13
2019-01-03T18:13:21.453Z,80.30
2019-01-03T18:15:49.929Z,81.09
2019-01-03T18:18:37.649Z,80.69
2019-01-03T18:21:06.135Z,80.42
2019-01-03T18:23:34.606Z,80.06
2019-01-03T18:26:03.141Z,80.09
2019-01-03T18:28:50.966Z,80.50
2019-01-03T18:34:12.357Z,79.46
2019-01-03T18:36:40.836Z,79.22
2019-01-03T18:39:28.555Z,78.96
2019-01-03T18:42:16.285Z,79.23
2019-01-03T18:44:44.762Z,79.08
2019-01-03T18:47:13.255Z,79.87
2019-01-03T18:49:41.730Z,79.99
2019-01-03T18:52:10.212Z,79.83
2019-01-03T18:54:38.683Z,80.44
2019-01-03T18:59:41.577Z,80.29
2019-01-03T19:02:29.400Z,79.76
2019-01-03T19:04:57.874Z,79.44
2019-01-03T19:07:45.704Z,79.08
2019-01-03T19:10:33.430Z,78.38
2019-01-03T19:13:21.163Z,77.81
2019-01-03T19:16:08.754Z,77.02
2019-01-03T19:18:37.235Z,76.87
2019-01-03T19:21:05.718Z,77.50
2019-01-03T19:23:55.445Z,77.93
2019-01-03T19:26:23.516Z,78.27
2019-01-03T19:28:51.997Z,78.14
2019-01-03T19:31:20.481Z,77.95
2019-01-03T19:34:08.087Z,77.77
2019-01-03T19:39:43.249Z,77.91
2019-01-03T19:42:11.730Z,77.73
2019-01-03T19:44:59.322Z,77.64
2019-01-03T19:47:27.831Z,77.77
2019-01-03T19:53:02.837Z,78.30
2019-01-03T19:58:18.763Z,79.27
2019-01-03T20:01:06.354Z,79.04
2019-01-03T20:03:34.844Z,79.62
2019-01-03T20:06:22.573Z,80.04
2019-01-03T20:08:51.061Z,80.37
2019-01-03T20:11:19.538Z,79.98
2019-01-03T20:13:48.368Z,79.95
2019-01-03T20:16:36.094Z,80.13
2019-01-03T20:19:04.582Z,80.05
2019-01-03T20:21:33.061Z,79.93
2019-01-03T20:27:14.011Z,80.68
2019-01-03T20:30:01.750Z,80.06
2019-01-03T20:32:49.337Z,79.58
2019-01-03T20:35:17.844Z,79.33
2019-01-03T20:37:46.318Z,79.89
2019-01-03T20:40:33.918Z,80.48
2019-01-03T20:43:02.392Z,81.39
2019-01-03T20:45:30.877Z,81.50
2019-01-03T20:48:18.593Z,81.28
2019-01-03T20:51:06.320Z,81.18
2019-01-03T20:53:54.150Z,80.63
2019-01-03T20:56:41.874Z,80.88
2019-01-03T20:59:10.357Z,80.70
2019-01-03T21:01:38.829Z,80.59
2019-01-03T21:07:00.307Z,80.67
2019-01-03T21:09:28.788Z,80.32
2019-01-03T21:11:57.267Z,80.40
2019-01-03T21:14:45.086Z,80.02
2019-01-03T21:17:32.848Z,79.58
2019-01-03T21:20:20.582Z,79.05
2019-01-03T21:23:08.301Z,78.42
2019-01-03T21:28:11.863Z,77.60
2019-01-03T21:31:00.391Z,77.08
2019-01-03T21:33:48.109Z,76.48
2019-01-03T21:36:16.594Z,75.94
2019-01-03T21:39:25.221Z,75.47
2019-01-03T21:41:55.252Z,75.20
2019-01-03T21:44:42.996Z,75.20
2019-01-03T21:47:11.470Z,75.10
2019-01-03T21:52:27.385Z,75.83
2019-01-03T21:54:55.873Z,77.32
2019-01-03T21:57:24.351Z,78.22
2019-01-03T22:02:45.788Z,79.29
2019-01-03T22:05:33.406Z,79.49
2019-01-03T22:08:21.105Z,79.88
2019-01-03T22:10:49.584Z,79.84
2019-01-03T22:13:18.095Z,80.57
2019-01-03T22:16:05.752Z,79.95
2019-01-03T22:18:53.350Z,79.55
2019-01-03T22:21:21.838Z,79.95
2019-01-03T22:23:50.306Z,79.91
2019-01-03T22:26:38.039Z,79.66
2019-01-03T22:34:28.702Z,79.25
2019-01-03T22:36:57.188Z,79.11
2019-01-03T22:39:25.675Z,79.35
2019-01-03T22:44:28.089Z,79.51
2019-01-03T22:46:56.568Z,80.72
2019-01-03T22:52:31.829Z,81.70
2019-01-03T22:55:19.546Z,81.22
2019-01-03T22:57:48.027Z,81.18
2019-01-03T23:00:56.482Z,81.57
2019-01-03T23:03:24.952Z,81.59
2019-01-03T23:06:12.785Z,81.25
2019-01-03T23:09:00.473Z,80.58
2019-01-03T23:11:48.306Z,79.91
2019-01-03T23:14:16.963Z,80.40
2019-01-03T23:16:45.568Z,79.94
2019-01-03T23:22:40.081Z,79.70
2019-01-03T23:25:27.674Z,79.45
2019-01-03T23:28:15.299Z,79.39
2019-01-03T23:31:03.030Z,81.32
2019-01-03T23:33:50.629Z,82.95
2019-01-03T23:36:38.462Z,83.38
2019-01-03T23:42:15.078Z,83.42
2019-01-03T23:45:22.146Z,83.00
2019-01-03T23:48:30.561Z,83.72
2019-01-03T23:50:59.050Z,84.15
2019-01-03T23:53:46.641Z,84.80
2019-01-03T23:56:34.244Z,84.62
2019-01-03T23:59:02.716Z,83.79
